createdAt,value
2019-02-16T00:00:50.763Z,14.57
2019-02-16T00:03:26.404Z,10.67
2019-02-16T00:05:57.331Z,12.67
2019-02-16T00:08:29.423Z,11.67
2019-02-16T00:11:00.137Z,13.37
2019-02-16T00:13:30.958Z,11.00
2019-02-16T00:16:02.258Z,10.90
2019-02-16T00:18:33.226Z,13.73
2019-02-16T00:21:04.454Z,12.50
2019-02-16T00:23:35.456Z,12.90
2019-02-16T00:26:05.983Z,11.37
2019-02-16T00:28:36.983Z,13.40
2019-02-16T00:31:07.877Z,12.60
2019-02-16T00:33:38.701Z,11.50
2019-02-16T00:36:09.626Z,11.90
2019-02-16T00:38:40.785Z,13.37
2019-02-16T00:41:12.046Z,12.40
2019-02-16T00:43:43.326Z,14.63
2019-02-16T00:46:14.037Z,11.73
2019-02-16T00:48:45.043Z,9.93
2019-02-16T00:51:16.248Z,14.77
2019-02-16T00:53:49.109Z,11.40
2019-02-16T00:56:21.366Z,12.93
2019-02-16T00:58:52.069Z,9.73
2019-02-16T01:01:22.646Z,11.77
2019-02-16T01:03:53.327Z,12.40
2019-02-16T01:06:24.954Z,16.03
2019-02-16T01:08:56.158Z,12.67
2019-02-16T01:11:26.793Z,12.87
2019-02-16T01:13:57.544Z,11.03
2019-02-16T01:16:28.261Z,11.73
2019-02-16T01:18:59.256Z,11.07
2019-02-16T01:21:29.918Z,13.67
2019-02-16T01:24:00.477Z,13.07
2019-02-16T01:26:31.162Z,10.70
2019-02-16T01:29:02.108Z,13.40
2019-02-16T01:31:35.335Z,10.27
2019-02-16T01:34:06.085Z,9.20
2019-02-16T01:36:37.133Z,9.73
2019-02-16T01:39:08.714Z,13.83
2019-02-16T01:41:41.294Z,10.70
2019-02-16T01:44:13.673Z,9.93
2019-02-16T01:46:44.413Z,9.17
2019-02-16T01:49:15.257Z,9.37
2019-02-16T01:51:46.774Z,10.23
2019-02-16T01:54:17.672Z,9.50
2019-02-16T01:56:48.393Z,11.23
2019-02-16T01:59:19.801Z,10.70
2019-02-16T02:01:50.980Z,8.87
2019-02-16T02:04:21.769Z,11.27
2019-02-16T02:06:52.604Z,11.13
2019-02-16T02:09:24.815Z,10.33
2019-02-16T02:11:55.627Z,12.73
2019-02-16T02:15:04.623Z,10.37
2019-02-16T02:18:29.112Z,9.57
2019-02-16T02:21:01.695Z,10.70
2019-02-16T02:23:35.028Z,9.80
2019-02-16T02:26:11.775Z,7.70
2019-02-16T02:28:42.524Z,9.33
2019-02-16T02:31:13.725Z,10.43
2019-02-16T02:33:44.317Z,9.57
2019-02-16T02:36:15.202Z,10.27
2019-02-16T02:38:45.955Z,13.27
2019-02-16T02:41:17.081Z,8.73
2019-02-16T02:43:48.595Z,9.97
2019-02-16T02:46:19.162Z,11.90
2019-02-16T02:48:52.480Z,11.70
2019-02-16T02:51:24.424Z,9.60
2019-02-16T02:54:01.499Z,9.43
2019-02-16T02:56:32.852Z,11.17
2019-02-16T02:59:03.557Z,11.37
2019-02-16T03:01:34.449Z,9.40
2019-02-16T03:04:05.307Z,10.13
2019-02-16T03:06:36.409Z,11.40
2019-02-16T03:09:07.667Z,13.03
2019-02-16T03:11:38.992Z,12.83
2019-02-16T03:14:09.818Z,9.63
2019-02-16T03:16:41.171Z,11.57
2019-02-16T03:19:12.245Z,10.20
2019-02-16T03:21:43.247Z,14.10
2019-02-16T03:24:14.465Z,11.87
2019-02-16T03:26:56.396Z,10.80
2019-02-16T03:29:54.016Z,12.67
2019-02-16T03:32:57.551Z,9.13
2019-02-16T03:36:17.197Z,10.27
2019-02-16T03:38:55.807Z,14.77
2019-02-16T03:41:26.548Z,9.40
2019-02-16T03:43:57.292Z,10.97
2019-02-16T03:46:28.287Z,10.00
2019-02-16T03:48:59.058Z,12.70
2019-02-16T03:51:30.104Z,10.73
2019-02-16T03:54:01.107Z,9.87
2019-02-16T03:56:31.849Z,12.27
2019-02-16T03:59:02.779Z,8.90
2019-02-16T04:01:33.854Z,8.70
2019-02-16T04:04:04.639Z,9.27
2019-02-16T04:06:35.572Z,9.43
2019-02-16T04:09:07.123Z,12.17
2019-02-16T04:11:40.655Z,11.87
2019-02-16T04:14:11.480Z,10.17
2019-02-16T04:16:42.408Z,7.73
2019-02-16T04:19:13.280Z,8.13
2019-02-16T04:21:44.292Z,7.97
2019-02-16T04:24:15.074Z,12.20
2019-02-16T04:26:46.118Z,9.60
2019-02-16T04:29:16.726Z,8.93
2019-02-16T04:31:47.862Z,9.43
2019-02-16T04:34:18.595Z,10.47
2019-02-16T04:36:50.694Z,8.47
2019-02-16T04:39:21.495Z,8.03
2019-02-16T04:41:52.177Z,8.83
2019-02-16T04:44:24.864Z,9.33
2019-02-16T04:46:55.566Z,11.73
2019-02-16T04:49:26.763Z,9.07
2019-02-16T04:51:57.578Z,8.73
2019-02-16T04:54:29.056Z,12.07
2019-02-16T04:56:59.834Z,11.47
2019-02-16T04:59:30.928Z,10.37
2019-02-16T05:02:02.049Z,9.30
2019-02-16T05:04:33.233Z,10.77
2019-02-16T05:07:06.395Z,9.50
2019-02-16T05:09:37.315Z,9.00
2019-02-16T05:12:08.251Z,9.27
2019-02-16T05:14:39.081Z,6.63
2019-02-16T05:17:10.235Z,10.43
2019-02-16T05:19:41.413Z,8.23
2019-02-16T05:22:12.477Z,8.13
2019-02-16T05:24:43.434Z,11.33
2019-02-16T05:27:14.527Z,7.77
2019-02-16T05:29:45.163Z,7.40
2019-02-16T05:32:17.636Z,8.43
2019-02-16T05:34:49.004Z,9.93
2019-02-16T05:37:19.886Z,13.27
2019-02-16T05:39:50.966Z,8.20
2019-02-16T05:42:21.828Z,9.03
2019-02-16T05:44:52.841Z,8.40
2019-02-16T05:47:23.684Z,10.53
2019-02-16T05:49:54.896Z,7.07
2019-02-16T05:52:25.620Z,9.10
2019-02-16T05:54:56.283Z,10.23
2019-02-16T05:57:27.299Z,7.23
2019-02-16T05:59:58.499Z,7.70
2019-02-16T06:02:29.405Z,7.00
2019-02-16T06:05:00.344Z,7.70
2019-02-16T06:07:32.316Z,8.03
2019-02-16T06:10:03.321Z,7.33
2019-02-16T06:12:35.018Z,7.97
2019-02-16T06:15:07.095Z,12.27
2019-02-16T06:17:40.925Z,10.10
2019-02-16T06:20:11.904Z,9.17
2019-02-16T06:22:42.573Z,9.73
2019-02-16T06:25:13.581Z,5.37
2019-02-16T06:27:44.823Z,8.43
2019-02-16T06:30:16.385Z,5.77
2019-02-16T06:32:47.293Z,5.70
2019-02-16T06:35:31.663Z,8.07
2019-02-16T06:38:02.876Z,9.47
2019-02-16T06:40:34.069Z,7.90
2019-02-16T06:43:05.079Z,6.57
2019-02-16T06:45:35.817Z,9.33
2019-02-16T06:48:06.680Z,7.30
2019-02-16T06:50:37.591Z,6.07
2019-02-16T06:53:13.160Z,5.70
2019-02-16T06:55:46.354Z,7.17
2019-02-16T06:58:17.871Z,6.80
2019-02-16T07:00:50.846Z,6.13
2019-02-16T07:03:21.654Z,6.90
2019-02-16T07:05:52.614Z,9.60
2019-02-16T07:08:23.442Z,7.00
2019-02-16T07:10:54.288Z,6.47
2019-02-16T07:13:27.939Z,10.80
2019-02-16T07:16:27.099Z,6.77
2019-02-16T07:19:06.033Z,5.43
2019-02-16T07:21:36.956Z,6.50
2019-02-16T07:24:07.871Z,5.70
2019-02-16T07:26:39.040Z,6.73
2019-02-16T07:29:10.476Z,8.40
2019-02-16T07:31:41.518Z,8.67
2019-02-16T07:34:12.247Z,6.70
2019-02-16T07:36:43.114Z,6.33
2019-02-16T07:39:17.757Z,5.97
2019-02-16T07:41:48.729Z,5.73
2019-02-16T07:44:37.549Z,8.03
2019-02-16T07:47:24.460Z,6.97
2019-02-16T07:50:03.664Z,5.77
2019-02-16T07:52:56.113Z,5.90
2019-02-16T07:55:46.373Z,7.07
2019-02-16T07:58:23.354Z,6.53
2019-02-16T08:01:19.083Z,5.63
2019-02-16T08:04:16.309Z,6.23
2019-02-16T08:07:09.203Z,5.97
2019-02-16T08:10:03.236Z,8.13
2019-02-16T08:13:18.516Z,9.10
2019-02-16T08:16:17.251Z,6.60
2019-02-16T08:19:15.450Z,6.50
2019-02-16T08:22:07.771Z,11.37
2019-02-16T08:25:01.678Z,8.10
2019-02-16T08:27:52.041Z,6.23
2019-02-16T08:30:32.215Z,8.30
2019-02-16T08:33:29.006Z,5.80
2019-02-16T08:36:13.099Z,5.97
2019-02-16T08:39:03.827Z,6.70
2019-02-16T08:42:12.150Z,7.77
2019-02-16T08:44:57.855Z,7.37
2019-02-16T08:47:52.165Z,6.50
2019-02-16T08:50:51.301Z,6.93
2019-02-16T08:53:34.107Z,8.53
2019-02-16T08:56:17.397Z,5.53
2019-02-16T08:59:13.604Z,5.60
2019-02-16T09:02:19.022Z,5.53
2019-02-16T09:05:18.178Z,6.03
2019-02-16T09:08:14.118Z,7.80
2019-02-16T09:11:17.916Z,7.53
2019-02-16T09:13:56.413Z,7.77
2019-02-16T09:16:41.446Z,5.20
2019-02-16T09:19:39.291Z,6.70
2019-02-16T09:22:30.378Z,4.97
2019-02-16T09:25:11.638Z,6.00
2019-02-16T09:27:57.023Z,5.60
2019-02-16T09:31:05.331Z,4.80
2019-02-16T09:33:50.363Z,5.07
2019-02-16T09:36:47.982Z,5.67
2019-02-16T09:39:41.616Z,3.93
2019-02-16T09:42:39.483Z,4.20
2019-02-16T09:45:38.173Z,5.20
2019-02-16T09:48:20.276Z,7.27
2019-02-16T09:51:20.960Z,6.13
2019-02-16T09:54:10.166Z,4.80
2019-02-16T09:56:54.335Z,6.77
2019-02-16T09:59:47.247Z,4.83
2019-02-16T10:02:40.180Z,6.60
2019-02-16T10:05:43.969Z,5.87
2019-02-16T10:09:00.368Z,5.70
2019-02-16T10:11:45.148Z,6.93
2019-02-16T10:14:26.227Z,4.87
2019-02-16T10:17:10.071Z,3.97
2019-02-16T10:20:05.686Z,3.40
2019-02-16T10:23:03.095Z,5.20
2019-02-16T10:26:07.628Z,7.87
2019-02-16T10:29:09.300Z,4.03
2019-02-16T10:32:10.493Z,3.80
2019-02-16T10:35:09.039Z,2.47
2019-02-16T10:38:00.238Z,3.77
2019-02-16T10:40:47.859Z,3.00
2019-02-16T10:43:49.848Z,3.77
2019-02-16T10:46:53.115Z,2.27
2019-02-16T10:49:43.566Z,3.53
2019-02-16T10:52:32.805Z,2.57
2019-02-16T10:55:38.901Z,2.17
2019-02-16T10:58:42.923Z,5.30
2019-02-16T11:02:06.454Z,5.30
2019-02-16T11:05:04.165Z,3.43
2019-02-16T11:07:59.850Z,4.27
2019-02-16T11:10:48.516Z,3.77
2019-02-16T11:13:38.554Z,3.70
2019-02-16T11:16:25.253Z,2.77
2019-02-16T11:19:03.840Z,2.30
2019-02-16T11:22:04.779Z,3.73
2019-02-16T11:25:00.386Z,3.63
2019-02-16T11:27:57.695Z,3.10
2019-02-16T11:30:51.909Z,3.67
2019-02-16T11:33:44.865Z,4.27
2019-02-16T11:36:28.176Z,3.63
2019-02-16T11:39:25.574Z,3.30
2019-02-16T11:42:26.280Z,3.07
2019-02-16T11:45:33.981Z,4.33
2019-02-16T11:48:27.194Z,4.27
2019-02-16T11:51:22.434Z,2.80
2019-02-16T11:54:10.544Z,6.10
2019-02-16T11:57:12.549Z,2.50
2019-02-16T11:59:58.689Z,3.20
2019-02-16T12:02:54.749Z,2.37
2019-02-16T12:05:48.858Z,4.57
2019-02-16T12:08:45.583Z,1.80
2019-02-16T12:11:45.104Z,1.23
2019-02-16T12:14:33.116Z,2.80
2019-02-16T12:17:25.938Z,2.20
2019-02-16T12:20:09.519Z,1.93
2019-02-16T12:22:49.229Z,2.60
2019-02-16T12:25:45.151Z,1.53
2019-02-16T12:28:32.999Z,1.80
2019-02-16T12:32:05.892Z,2.07
2019-02-16T12:34:58.905Z,3.10
2019-02-16T12:37:58.964Z,3.40
2019-02-16T12:41:03.749Z,2.80
2019-02-16T12:43:59.515Z,4.03
2019-02-16T12:47:04.308Z,2.37
2019-02-16T12:49:56.092Z,5.87
2019-02-16T12:52:45.725Z,8.13
2019-02-16T12:55:39.478Z,2.90
2019-02-16T12:58:46.954Z,5.73
2019-02-16T13:01:56.181Z,7.17
2019-02-16T13:04:45.344Z,3.77
2019-02-16T13:07:28.788Z,6.83
2019-02-16T13:10:27.098Z,3.10
2019-02-16T13:13:18.741Z,3.67
2019-02-16T13:16:20.792Z,3.30
2019-02-16T13:19:14.848Z,7.67
2019-02-16T13:22:24.504Z,4.03
2019-02-16T13:25:23.895Z,2.67
2019-02-16T13:27:59.716Z,5.63
2019-02-16T13:30:48.491Z,5.27
2019-02-16T13:33:46.664Z,7.20
2019-02-16T13:36:30.745Z,4.80
2019-02-16T13:39:16.022Z,3.30
2019-02-16T13:42:08.759Z,4.10
2019-02-16T13:44:45.722Z,4.07
2019-02-16T13:47:50.666Z,5.87
2019-02-16T13:50:26.924Z,8.20
2019-02-16T13:53:16.555Z,3.33
2019-02-16T13:56:15.996Z,5.97
2019-02-16T13:58:56.145Z,3.43
2019-02-16T14:04:32.923Z,5.70
2019-02-16T14:07:18.203Z,3.97
2019-02-16T14:10:04.897Z,9.30
2019-02-16T14:12:58.497Z,7.20
2019-02-16T14:15:37.937Z,3.57
2019-02-16T14:18:10.658Z,6.13
2019-02-16T14:20:44.236Z,4.40
2019-02-16T14:23:20.088Z,5.77
2019-02-16T14:25:53.420Z,5.50
2019-02-16T14:28:25.101Z,6.40
2019-02-16T14:30:56.247Z,7.20
2019-02-16T14:33:30.728Z,3.83
2019-02-16T14:36:07.903Z,6.10
2019-02-16T14:38:56.726Z,6.60
2019-02-16T14:41:32.317Z,8.10
2019-02-16T14:44:03.633Z,4.97
2019-02-16T14:46:34.502Z,6.27
2019-02-16T14:49:05.166Z,6.30
2019-02-16T14:51:38.688Z,5.33
2019-02-16T14:54:12.144Z,6.83
2019-02-16T14:56:45.670Z,4.47
2019-02-16T14:59:16.197Z,5.40
2019-02-16T15:01:46.941Z,4.83
2019-02-16T15:04:17.850Z,6.57
2019-02-16T15:06:48.933Z,3.47
2019-02-16T15:09:19.769Z,5.97
2019-02-16T15:11:52.496Z,6.30
2019-02-16T15:14:23.330Z,5.73
2019-02-16T15:16:56.064Z,6.73
2019-02-16T15:19:26.747Z,5.33
2019-02-16T15:22:01.036Z,3.83
2019-02-16T15:24:31.525Z,5.73
2019-02-16T15:27:02.511Z,6.37
2019-02-16T15:29:33.606Z,5.57
2019-02-16T15:32:04.864Z,5.07
2019-02-16T15:34:35.803Z,7.73
2019-02-16T15:37:11.641Z,7.43
2019-02-16T15:39:42.567Z,5.40
2019-02-16T15:42:13.546Z,4.07
2019-02-16T15:44:44.905Z,4.97
2019-02-16T15:47:15.412Z,7.27
2019-02-16T15:49:48.561Z,5.07
2019-02-16T15:52:23.418Z,6.47
2019-02-16T15:54:55.218Z,6.10
2019-02-16T15:57:29.354Z,6.90
2019-02-16T16:00:00.322Z,7.00
2019-02-16T16:02:32.824Z,4.90
2019-02-16T16:05:04.162Z,5.17
2019-02-16T16:07:35.181Z,8.83
2019-02-16T16:10:18.965Z,4.60
2019-02-16T16:13:09.279Z,10.23
2019-02-16T16:16:16.046Z,10.77
2019-02-16T16:19:16.309Z,7.53
2019-02-16T16:22:07.870Z,8.60
2019-02-16T16:25:08.504Z,7.53
2019-02-16T16:28:17.597Z,12.03
2019-02-16T16:31:11.552Z,7.40
2019-02-16T16:34:00.197Z,7.83
2019-02-16T16:36:48.092Z,9.23
2019-02-16T16:39:26.106Z,8.13
2019-02-16T16:42:19.528Z,7.83
2019-02-16T16:45:08.228Z,18.77
2019-02-16T16:47:58.162Z,15.37
2019-02-16T16:50:54.839Z,7.67
2019-02-16T16:53:48.131Z,14.73
2019-02-16T16:56:42.193Z,8.53
2019-02-16T16:59:50.637Z,21.13
2019-02-16T17:02:40.861Z,13.43
2019-02-16T17:05:35.744Z,7.67
2019-02-16T17:08:40.309Z,11.03
2019-02-16T17:11:26.338Z,11.77
2019-02-16T17:14:17.813Z,10.53
2019-02-16T17:17:14.025Z,9.20
2019-02-16T17:20:02.595Z,9.67
2019-02-16T17:22:46.691Z,9.87
2019-02-16T17:25:28.092Z,10.90
2019-02-16T17:28:20.931Z,10.40
2019-02-16T17:31:04.192Z,6.23
2019-02-16T17:33:46.506Z,10.20
2019-02-16T17:36:42.179Z,13.17
2019-02-16T17:39:30.501Z,11.63
2019-02-16T17:42:16.092Z,11.50
2019-02-16T17:45:06.177Z,11.67
2019-02-16T17:47:58.789Z,7.90
2019-02-16T17:50:54.898Z,12.43
2019-02-16T17:53:38.136Z,12.13
2019-02-16T17:56:17.256Z,8.73
2019-02-16T17:59:06.229Z,12.00
2019-02-16T18:01:55.799Z,11.33
2019-02-16T18:04:58.544Z,8.00
2019-02-16T18:07:55.023Z,7.97
2019-02-16T18:10:49.124Z,11.10
2019-02-16T18:13:29.403Z,9.17
2019-02-16T18:16:17.853Z,10.63
2019-02-16T18:19:12.013Z,9.73
2019-02-16T18:22:02.142Z,10.43
2019-02-16T18:24:51.284Z,13.07
2019-02-16T18:27:47.414Z,8.23
2019-02-16T18:30:36.387Z,10.30
2019-02-16T18:33:32.156Z,7.03
2019-02-16T18:36:38.229Z,12.17
2019-02-16T18:39:34.229Z,11.40
2019-02-16T18:42:15.385Z,10.23
2019-02-16T18:44:56.089Z,12.80
2019-02-16T18:48:00.985Z,8.80
2019-02-16T18:50:49.482Z,8.73
2019-02-16T18:53:42.378Z,7.70
2019-02-16T18:56:41.245Z,8.37
2019-02-16T18:59:35.122Z,9.33
2019-02-16T19:02:18.656Z,8.50
2019-02-16T19:05:08.529Z,8.80
2019-02-16T19:08:00.316Z,9.13
2019-02-16T19:10:51.987Z,11.97
2019-02-16T19:13:48.863Z,10.10
2019-02-16T19:16:48.295Z,7.63
2019-02-16T19:19:43.311Z,9.97
2019-02-16T19:22:31.235Z,6.60
2019-02-16T19:25:26.794Z,8.70
2019-02-16T19:28:19.764Z,8.20
2019-02-16T19:31:22.426Z,10.53
2019-02-16T19:34:16.635Z,9.07
2019-02-16T19:37:12.947Z,12.60
2019-02-16T19:39:56.343Z,6.43
2019-02-16T19:42:45.454Z,7.30
2019-02-16T19:45:38.679Z,9.57
2019-02-16T19:48:27.126Z,7.00
2019-02-16T19:51:20.354Z,10.00
2019-02-16T19:54:10.133Z,12.57
2019-02-16T19:57:09.268Z,9.53
2019-02-16T19:59:59.455Z,5.93
2019-02-16T20:02:51.060Z,7.23
2019-02-16T20:05:42.184Z,9.03
2019-02-16T20:08:30.694Z,15.47
2019-02-16T20:11:26.101Z,7.47
2019-02-16T20:14:16.458Z,10.67
2019-02-16T20:17:09.838Z,9.77
2019-02-16T20:20:11.741Z,7.47
2019-02-16T20:23:06.049Z,9.57
2019-02-16T20:26:05.794Z,9.37
2019-02-16T20:28:56.686Z,9.63
2019-02-16T20:31:58.223Z,7.90
2019-02-16T20:34:37.143Z,10.53
2019-02-16T20:37:21.380Z,10.57
2019-02-16T20:39:59.917Z,8.53
2019-02-16T20:42:58.187Z,8.73
2019-02-16T20:45:35.654Z,10.93
2019-02-16T20:48:28.280Z,9.13
2019-02-16T20:51:21.413Z,9.13
2019-02-16T20:54:23.817Z,8.87
2019-02-16T20:57:07.601Z,10.10
2019-02-16T21:00:09.080Z,8.20
2019-02-16T21:03:04.985Z,9.53
2019-02-16T21:05:56.841Z,10.70
2019-02-16T21:08:40.331Z,13.60
2019-02-16T21:11:28.882Z,11.63
2019-02-16T21:14:09.355Z,8.70
2019-02-16T21:16:59.001Z,12.33
2019-02-16T21:19:52.907Z,9.80
2019-02-16T21:22:45.518Z,11.03
2019-02-16T21:25:34.353Z,8.23
2019-02-16T21:28:29.995Z,9.83
2019-02-16T21:31:07.213Z,7.13
2019-02-16T21:33:50.323Z,8.30
2019-02-16T21:36:34.342Z,9.83
2019-02-16T21:39:26.518Z,8.13
2019-02-16T21:42:13.351Z,8.97
2019-02-16T21:45:04.835Z,10.13
2019-02-16T21:48:00.629Z,11.20
2019-02-16T21:50:53.429Z,9.00
2019-02-16T21:53:48.042Z,11.20
2019-02-16T21:56:44.293Z,12.67
2019-02-16T21:59:43.867Z,9.87
2019-02-16T22:02:35.538Z,9.20
2019-02-16T22:05:27.150Z,10.20
2019-02-16T22:08:17.122Z,10.47
2019-02-16T22:11:11.114Z,16.17
2019-02-16T22:13:43.250Z,14.63
2019-02-16T22:16:14.384Z,12.77
2019-02-16T22:18:51.922Z,10.57
2019-02-16T22:21:24.553Z,11.53
2019-02-16T22:23:55.361Z,8.37
2019-02-16T22:26:31.097Z,11.30
2019-02-16T22:29:03.335Z,9.43
2019-02-16T22:31:38.105Z,12.87
2019-02-16T22:34:24.298Z,7.67
2019-02-16T22:37:18.101Z,10.43
2019-02-16T22:39:51.272Z,11.47
2019-02-16T22:42:26.647Z,10.03
2019-02-16T22:45:11.094Z,12.23
2019-02-16T22:47:49.545Z,10.30
2019-02-16T22:50:24.233Z,10.23
2019-02-16T22:53:02.559Z,8.80
2019-02-16T22:55:33.457Z,9.43
2019-02-16T22:58:04.101Z,14.47
2019-02-16T23:00:46.787Z,8.80
2019-02-16T23:03:20.086Z,8.20
2019-02-16T23:05:51.278Z,9.57
2019-02-16T23:08:25.045Z,10.03
2019-02-16T23:10:56.209Z,10.37
2019-02-16T23:13:28.855Z,9.77
2019-02-16T23:16:04.137Z,10.33
2019-02-16T23:18:38.106Z,11.43
2019-02-16T23:21:08.978Z,9.27
2019-02-16T23:23:44.123Z,9.10
2019-02-16T23:26:15.100Z,10.90
2019-02-16T23:28:48.888Z,12.60
2019-02-16T23:31:20.290Z,11.20
2019-02-16T23:33:53.870Z,11.13
2019-02-16T23:36:27.945Z,10.83
2019-02-16T23:38:59.605Z,12.53
2019-02-16T23:41:34.165Z,10.63
2019-02-16T23:44:05.389Z,9.80
2019-02-16T23:46:36.468Z,18.40
2019-02-16T23:49:07.199Z,10.77
2019-02-16T23:51:38.872Z,9.30
2019-02-16T23:54:10.898Z,11.87
2019-02-16T23:56:44.338Z,15.60
2019-02-16T23:59:18.742Z,13.33
